createdAt,value
2022-12-25T00:00:20.189Z,101450.91
2022-12-25T00:00:55.120Z,101450.13
2022-12-25T00:01:32.285Z,101447.75
2022-12-25T00:02:11.399Z,101448.22
2022-12-25T00:02:42.928Z,101449.00
2022-12-25T00:03:17.416Z,101447.41
2022-12-25T00:03:55.128Z,101451.72
2022-12-25T00:04:33.990Z,101446.63
2022-12-25T00:05:10.333Z,101449.00
2022-12-25T00:05:43.050Z,101453.97
2022-12-25T00:06:24.531Z,101450.59
2022-12-25T00:07:01.544Z,101450.13
2022-12-25T00:07:33.152Z,101446.28
2022-12-25T00:08:09.185Z,101462.34
2022-12-25T00:08:58.611Z,101452.19
2022-12-25T00:09:33.101Z,101446.75
2022-12-25T00:10:05.224Z,101451.84
2022-12-25T00:11:33.191Z,101442.13
2022-12-25T00:12:04.800Z,101448.00
2022-12-25T00:12:36.350Z,101440.66
2022-12-25T00:13:09.101Z,101443.72
2022-12-25T00:13:44.365Z,101442.25
2022-12-25T00:14:16.009Z,101436.84
2022-12-25T00:14:49.890Z,101446.53
2022-12-25T00:15:21.565Z,101446.53
2022-12-25T00:15:53.471Z,101438.75
2022-12-25T00:16:28.227Z,101449.25
2022-12-25T00:17:05.997Z,101441.13
2022-12-25T00:17:37.700Z,101442.72
2022-12-25T00:18:09.396Z,101447.00
2022-12-25T00:18:49.820Z,101437.63
2022-12-25T00:19:24.578Z,101436.16
2022-12-25T00:19:56.019Z,101431.41
2022-12-25T00:20:27.653Z,101445.53
2022-12-25T00:21:04.814Z,101436.50
2022-12-25T00:21:36.273Z,101438.09
2022-12-25T00:22:18.087Z,101442.38
2022-12-25T00:22:51.381Z,101432.22
2022-12-25T00:23:22.887Z,101443.16
2022-12-25T00:23:59.689Z,101444.75
2022-12-25T00:24:31.187Z,101441.59
2022-12-25T00:25:05.977Z,101436.16
2022-12-25T00:25:44.279Z,101435.47
2022-12-25T00:26:21.067Z,101438.53
2022-12-25T00:26:56.714Z,101436.25
2022-12-25T00:27:31.792Z,101443.59
2022-12-25T00:28:07.867Z,101442.47
2022-12-25T00:28:39.723Z,101441.81
2022-12-25T00:29:13.952Z,101445.31
2022-12-25T00:30:42.877Z,101448.16
2022-12-25T00:31:17.928Z,101443.50
2022-12-25T00:31:49.811Z,101445.88
2022-12-25T00:32:21.421Z,101440.34
2022-12-25T00:32:55.783Z,101440.00
2022-12-25T00:33:31.075Z,101439.22
2022-12-25T00:34:07.169Z,101438.44
2022-12-25T00:34:41.882Z,101436.19
2022-12-25T00:35:13.328Z,101440.00
2022-12-25T00:36:01.377Z,101439.81
2022-12-25T00:36:37.858Z,101437.75
2022-12-25T00:37:14.177Z,101441.38
2022-12-25T00:37:48.037Z,101431.53
2022-12-25T00:38:22.575Z,101435.97
2022-12-25T00:38:56.767Z,101437.09
2022-12-25T00:39:30.618Z,101435.16
2022-12-25T00:40:02.300Z,101439.81
2022-12-25T00:41:42.501Z,101443.75
2022-12-25T00:42:19.862Z,101439.00
2022-12-25T00:42:51.539Z,101437.53
2022-12-25T00:43:23.263Z,101431.22
2022-12-25T00:43:56.855Z,101430.53
2022-12-25T00:44:30.910Z,101433.25
2022-12-25T00:45:03.967Z,101430.53
2022-12-25T00:45:35.622Z,101428.97
2022-12-25T00:46:08.303Z,101434.03
2022-12-25T00:46:40.357Z,101438.00
2022-12-25T00:47:18.224Z,101432.13
2022-12-25T00:47:52.530Z,101429.09
2022-12-25T00:48:29.304Z,101436.88
2022-12-25T00:49:01.478Z,101438.34
2022-12-25T00:49:35.233Z,101446.22
2022-12-25T00:50:11.300Z,101434.50
2022-12-25T00:50:45.869Z,101444.22
2022-12-25T00:51:21.426Z,101438.78
2022-12-25T00:51:53.265Z,101443.06
2022-12-25T00:52:27.120Z,101443.84
2022-12-25T00:53:00.871Z,101438.78
2022-12-25T00:53:35.098Z,101442.63
2022-12-25T00:54:06.770Z,101448.16
2022-12-25T00:54:39.744Z,101448.94
2022-12-25T00:55:13.706Z,101435.28
2022-12-25T00:55:54.008Z,101437.31
2022-12-25T00:56:30.177Z,101443.53
2022-12-25T00:57:04.611Z,101437.75
2022-12-25T00:57:38.145Z,101437.63
2022-12-25T00:58:18.916Z,101446.34
2022-12-25T00:58:55.363Z,101451.78
2022-12-25T00:59:26.861Z,101440.81
2022-12-25T01:00:01.498Z,101442.38
2022-12-25T01:00:34.264Z,101443.19
2022-12-25T01:01:06.129Z,101443.19
2022-12-25T01:01:38.564Z,101453.81
2022-12-25T01:02:25.597Z,101449.06
2022-12-25T01:02:57.403Z,101446.34
2022-12-25T01:03:32.092Z,101441.72
2022-12-25T01:04:10.069Z,101453.47
2022-12-25T01:04:43.959Z,101445.34
2022-12-25T01:05:17.411Z,101450.66
2022-12-25T01:06:00.500Z,101448.84
2022-12-25T01:06:32.648Z,101448.41
2022-12-25T01:07:04.151Z,101447.25
2022-12-25T01:07:35.621Z,101454.28
2022-12-25T01:08:07.155Z,101449.63
2022-12-25T01:09:03.834Z,101448.84
2022-12-25T01:09:54.157Z,101444.56
2022-12-25T01:10:25.652Z,101445.00
2022-12-25T01:10:59.717Z,101449.31
2022-12-25T01:11:31.402Z,101444.69
2022-12-25T01:12:02.844Z,101452.03
2022-12-25T01:12:37.702Z,101450.09
2022-12-25T01:13:09.282Z,101446.59
2022-12-25T01:13:40.661Z,101451.22
2022-12-25T01:14:12.418Z,101453.16
2022-12-25T01:14:43.972Z,101453.59
2022-12-25T01:15:22.756Z,101450.88
2022-12-25T01:15:55.588Z,101462.97
2022-12-25T01:16:35.072Z,101450.88
2022-12-25T01:17:10.163Z,101455.19
2022-12-25T01:17:54.121Z,101454.06
2022-12-25T01:18:25.757Z,101459.94
2022-12-25T01:18:58.945Z,101454.84
2022-12-25T01:19:30.562Z,101449.09
2022-12-25T01:20:02.235Z,101451.00
2022-12-25T01:20:37.635Z,101459.03
2022-12-25T01:21:16.632Z,101461.53
2022-12-25T01:21:50.477Z,101458.69
2022-12-25T01:22:22.065Z,101458.34
2022-12-25T01:22:56.567Z,101456.78
2022-12-25T01:23:31.093Z,101467.72
2022-12-25T01:24:05.543Z,101457.22
2022-12-25T01:24:38.226Z,101458.34
2022-12-25T01:25:16.099Z,101454.84
2022-12-25T01:25:47.506Z,101461.53
2022-12-25T01:26:25.535Z,101466.25
2022-12-25T01:26:59.710Z,101458.44
2022-12-25T01:27:34.464Z,101465.44
2022-12-25T01:28:08.981Z,101461.16
2022-12-25T01:28:40.928Z,101450.69
2022-12-25T01:29:16.397Z,101446.38
2022-12-25T01:29:47.929Z,101460.81
2022-12-25T01:30:19.659Z,101459.56
2022-12-25T01:30:55.802Z,101456.84
2022-12-25T01:31:28.538Z,101470.22
2022-12-25T01:32:02.522Z,101462.41
2022-12-25T01:32:35.447Z,101459.22
2022-12-25T01:33:07.052Z,101467.84
2022-12-25T01:34:31.729Z,101462.41
2022-12-25T01:35:03.433Z,101467.50
2022-12-25T01:35:36.202Z,101470.22
2022-12-25T01:36:25.850Z,101469.88
2022-12-25T01:36:59.916Z,101475.75
2022-12-25T01:37:31.500Z,101467.94
2022-12-25T01:38:03.179Z,101471.00
2022-12-25T01:38:34.638Z,101476.88
2022-12-25T01:39:09.220Z,101468.75
2022-12-25T01:39:45.304Z,101462.41
2022-12-25T01:40:21.259Z,101462.53
2022-12-25T01:40:56.027Z,101462.06
2022-12-25T01:41:30.606Z,101467.63
2022-12-25T01:42:05.260Z,101463.66
2022-12-25T01:42:42.328Z,101458.22
2022-12-25T01:43:27.845Z,101458.34
2022-12-25T01:44:09.104Z,101456.44
2022-12-25T01:44:46.363Z,101458.00
2022-12-25T01:45:32.176Z,101468.06
2022-12-25T01:46:05.934Z,101454.84
2022-12-25T01:46:42.933Z,101454.06
2022-12-25T01:47:20.710Z,101452.47
2022-12-25T01:47:55.187Z,101444.34
2022-12-25T01:48:38.492Z,101445.00
2022-12-25T01:49:15.208Z,101445.13
2022-12-25T01:49:54.761Z,101448.28
2022-12-25T01:50:30.013Z,101450.22
2022-12-25T01:51:24.943Z,101446.59
2022-12-25T01:52:05.342Z,101449.75
2022-12-25T01:52:36.999Z,101446.59
2022-12-25T01:53:14.601Z,101442.28
2022-12-25T01:53:47.932Z,101441.63
2022-12-25T01:54:28.978Z,101450.22
2022-12-25T01:55:04.289Z,101441.50
2022-12-25T01:55:36.781Z,101455.63
2022-12-25T01:56:12.024Z,101452.00
2022-12-25T01:56:51.393Z,101453.25
2022-12-25T01:57:30.183Z,101466.03
2022-12-25T01:58:06.499Z,101469.53
2022-12-25T01:58:38.071Z,101456.31
2022-12-25T01:59:18.710Z,101458.56
2022-12-25T01:59:57.313Z,101454.72
2022-12-25T02:00:31.339Z,101460.16
2022-12-25T02:01:11.080Z,101461.41
2022-12-25T02:01:42.719Z,101456.66
2022-12-25T02:02:14.786Z,101462.53
2022-12-25T02:02:50.445Z,101461.72
2022-12-25T02:03:27.030Z,101475.28
2022-12-25T02:04:23.200Z,101463.19
2022-12-25T02:05:15.939Z,101478.81
2022-12-25T02:06:06.541Z,101476.09
2022-12-25T02:06:37.971Z,101469.06
2022-12-25T02:07:21.729Z,101477.22
2022-12-25T02:07:54.531Z,101472.13
2022-12-25T02:08:26.129Z,101470.22
2022-12-25T02:08:59.060Z,101466.25
2022-12-25T02:09:33.438Z,101463.88
2022-12-25T02:10:23.449Z,101470.66
2022-12-25T02:10:54.905Z,101455.84
2022-12-25T02:11:45.115Z,101468.28
2022-12-25T02:12:21.077Z,101469.41
2022-12-25T02:12:53.436Z,101469.75
2022-12-25T02:13:28.043Z,101463.53
2022-12-25T02:13:59.573Z,101459.22
2022-12-25T02:14:36.734Z,101459.56
2022-12-25T02:15:11.939Z,101455.84
2022-12-25T02:16:10.293Z,101450.31
2022-12-25T02:16:57.015Z,101455.31
2022-12-25T02:17:55.065Z,101465.13
2022-12-25T02:18:54.385Z,101461.94
2022-12-25T02:20:12.301Z,101456.09
2022-12-25T02:20:51.787Z,101458.03
2022-12-25T02:21:33.577Z,101458.34
2022-12-25T02:22:31.094Z,101467.63
2022-12-25T02:23:33.612Z,101467.28
2022-12-25T02:24:42.503Z,101468.75
2022-12-25T02:25:14.079Z,101462.53
2022-12-25T02:26:19.278Z,101463.31
2022-12-25T02:26:56.880Z,101464.44
2022-12-25T02:27:51.331Z,101455.53
2022-12-25T02:28:34.038Z,101461.75
2022-12-25T02:29:08.124Z,101454.72
2022-12-25T02:30:02.302Z,101454.72
2022-12-25T02:30:42.719Z,101457.78
2022-12-25T02:31:18.795Z,101457.78
2022-12-25T02:31:59.568Z,101453.47
2022-12-25T02:32:40.349Z,101450.66
2022-12-25T02:33:41.853Z,101454.94
2022-12-25T02:34:21.373Z,101453.81
2022-12-25T02:35:15.417Z,101457.66
2022-12-25T02:35:53.524Z,101460.38
2022-12-25T02:36:37.729Z,101458.44
2022-12-25T02:37:17.594Z,101459.56
2022-12-25T02:37:55.927Z,101459.25
2022-12-25T02:38:36.633Z,101462.75
2022-12-25T02:39:42.630Z,101463.41
2022-12-25T02:40:40.689Z,101465.00
2022-12-25T02:41:18.861Z,101469.28
2022-12-25T02:41:53.879Z,101459.91
2022-12-25T02:43:16.040Z,101469.75
2022-12-25T02:44:06.170Z,101469.75
2022-12-25T02:45:01.872Z,101458.78
2022-12-25T02:46:05.666Z,101467.38
2022-12-25T02:46:55.503Z,101461.94
2022-12-25T02:48:02.737Z,101456.19
2022-12-25T02:48:57.324Z,101460.81
2022-12-25T02:49:48.509Z,101458.91
2022-12-25T02:50:40.564Z,101451.09
2022-12-25T02:51:34.998Z,101461.16
2022-12-25T02:52:32.109Z,101446.81
2022-12-25T02:53:23.628Z,101449.53
2022-12-25T02:54:16.100Z,101447.59
2022-12-25T02:55:15.203Z,101450.31
2022-12-25T02:56:07.851Z,101446.34
2022-12-25T02:57:00.463Z,101439.00
2022-12-25T02:57:56.584Z,101442.50
2022-12-25T02:58:47.167Z,101440.59
2022-12-25T02:59:39.455Z,101443.75
2022-12-25T03:00:31.361Z,101430.19
2022-12-25T03:01:32.280Z,101431.44
2022-12-25T03:02:25.215Z,101438.00
2022-12-25T03:03:17.539Z,101431.00
2022-12-25T03:04:09.435Z,101434.16
2022-12-25T03:05:00.393Z,101425.25
2022-12-25T03:05:52.728Z,101425.69
2022-12-25T03:06:43.431Z,101429.19
2022-12-25T03:07:20.895Z,101418.34
2022-12-25T03:07:52.333Z,101417.22
2022-12-25T03:08:52.327Z,101421.50
2022-12-25T03:09:47.932Z,101414.50
2022-12-25T03:10:39.672Z,101411.78
2022-12-25T03:11:31.268Z,101414.50
2022-12-25T03:12:13.341Z,101404.78
2022-12-25T03:13:01.506Z,101402.88
2022-12-25T03:13:36.862Z,101402.06
2022-12-25T03:14:27.612Z,101399.38
2022-12-25T03:15:17.704Z,101398.56
2022-12-25T03:16:08.224Z,101393.94
2022-12-25T03:16:52.799Z,101395.88
2022-12-25T03:17:24.778Z,101398.56
2022-12-25T03:18:01.505Z,101396.66
2022-12-25T03:18:34.224Z,101398.56
2022-12-25T03:19:26.135Z,101389.19
2022-12-25T03:20:19.494Z,101398.91
2022-12-25T03:21:10.473Z,101395.88
2022-12-25T03:22:00.362Z,101395.53
2022-12-25T03:22:51.355Z,101391.69
2022-12-25T03:23:47.348Z,101393.28
2022-12-25T03:24:37.209Z,101385.59
2022-12-25T03:25:28.009Z,101388.31
2022-12-25T03:26:17.847Z,101383.63
2022-12-25T03:26:54.921Z,101387.13
2022-12-25T03:27:32.210Z,101384.09
2022-12-25T03:28:04.193Z,101382.16
2022-12-25T03:28:35.563Z,101379.00
2022-12-25T03:29:07.199Z,101384.88
2022-12-25T03:29:57.349Z,101384.88
2022-12-25T03:30:57.056Z,101391.22
2022-12-25T03:33:23.343Z,101397.09
2022-12-25T03:34:30.554Z,101404.88
2022-12-25T03:35:26.084Z,101397.22
2022-12-25T03:36:28.348Z,101393.69
2022-12-25T03:37:27.572Z,101400.72
2022-12-25T03:38:51.247Z,101401.50
2022-12-25T03:39:50.521Z,101400.72
2022-12-25T03:40:52.850Z,101397.22
2022-12-25T03:42:09.334Z,101403.09
2022-12-25T03:43:06.194Z,101396.88
2022-12-25T03:44:22.380Z,101401.16
2022-12-25T03:45:21.939Z,101403.53
2022-12-25T03:46:15.557Z,101402.75
2022-12-25T03:48:34.042Z,101398.91
2022-12-25T03:49:32.740Z,101407.03
2022-12-25T03:50:36.004Z,101405.91
2022-12-25T03:51:31.015Z,101408.63
2022-12-25T03:52:24.578Z,101401.28
2022-12-25T03:53:17.440Z,101405.53
2022-12-25T03:54:14.173Z,101405.53
2022-12-25T03:55:06.186Z,101402.50
2022-12-25T03:55:57.578Z,101402.50
2022-12-25T03:56:50.636Z,101399.44
2022-12-25T03:57:40.683Z,101405.66
2022-12-25T03:58:41.198Z,101401.81
2022-12-25T03:59:31.323Z,101401.47
2022-12-25T04:00:21.643Z,101403.41
2022-12-25T04:01:11.982Z,101406.56
2022-12-25T04:02:02.893Z,101402.28
2022-12-25T04:02:53.971Z,101399.56
2022-12-25T04:03:44.129Z,101394.91
2022-12-25T04:04:33.968Z,101386.00
2022-12-25T04:05:34.937Z,101396.50
2022-12-25T04:06:25.057Z,101391.06
2022-12-25T04:07:14.847Z,101385.66
2022-12-25T04:08:04.925Z,101384.84
2022-12-25T04:08:55.002Z,101378.97
2022-12-25T04:09:44.974Z,101375.94
2022-12-25T04:10:35.230Z,101384.06
2022-12-25T04:11:25.096Z,101390.28
2022-12-25T04:12:15.157Z,101383.28
2022-12-25T04:13:18.929Z,101380.91
2022-12-25T04:14:08.905Z,101378.19
2022-12-25T04:14:58.785Z,101380.13
2022-12-25T04:15:48.922Z,101381.25
2022-12-25T04:16:38.961Z,101376.94
2022-12-25T04:17:28.811Z,101372.66
2022-12-25T04:18:18.784Z,101386.22
2022-12-25T04:19:08.829Z,101379.56
2022-12-25T04:19:58.715Z,101384.63
2022-12-25T04:20:48.334Z,101389.28
2022-12-25T04:21:38.215Z,101382.63
2022-12-25T04:22:28.352Z,101381.50
2022-12-25T04:23:18.707Z,101385.78
2022-12-25T04:24:08.714Z,101385.00
2022-12-25T04:24:58.945Z,101389.63
2022-12-25T04:25:49.120Z,101389.19
2022-12-25T04:26:39.378Z,101390.78
2022-12-25T04:27:29.587Z,101398.44
2022-12-25T04:28:21.119Z,101396.53
2022-12-25T04:29:11.383Z,101398.44
2022-12-25T04:30:01.771Z,101394.16
2022-12-25T04:30:52.906Z,101404.66
2022-12-25T04:31:43.002Z,101405.78
2022-12-25T04:32:33.200Z,101406.59
2022-12-25T04:33:23.305Z,101406.59
2022-12-25T04:34:13.419Z,101404.66
2022-12-25T04:35:03.289Z,101403.88
2022-12-25T04:35:53.256Z,101407.72
2022-12-25T04:36:24.624Z,101404.66
2022-12-25T04:36:56.147Z,101406.59
2022-12-25T04:37:27.621Z,101398.78
2022-12-25T04:37:59.156Z,101401.50
2022-12-25T04:38:30.635Z,101396.88
2022-12-25T04:39:02.064Z,101400.38
2022-12-25T04:39:33.440Z,101396.88
2022-12-25T04:40:08.023Z,101394.94
2022-12-25T04:40:39.571Z,101391.00
2022-12-25T04:41:16.238Z,101390.19
2022-12-25T04:41:47.761Z,101387.50
2022-12-25T04:42:21.839Z,101385.91
2022-12-25T04:42:53.633Z,101385.56
2022-12-25T04:43:27.582Z,101394.84
2022-12-25T04:44:00.505Z,101388.28
2022-12-25T04:44:31.933Z,101389.41
2022-12-25T04:45:05.862Z,101389.75
2022-12-25T04:45:41.901Z,101396.41
2022-12-25T04:46:13.347Z,101389.88
2022-12-25T04:46:51.142Z,101397.53
2022-12-25T04:47:22.641Z,101391.31
2022-12-25T04:48:02.239Z,101398.78
2022-12-25T04:48:37.041Z,101395.63
2022-12-25T04:49:10.848Z,101396.41
2022-12-25T04:49:42.458Z,101404.56
2022-12-25T04:50:14.020Z,101397.22
2022-12-25T04:50:45.543Z,101385.91
2022-12-25T04:51:25.058Z,101385.91
2022-12-25T04:51:56.529Z,101395.16
2022-12-25T04:52:28.146Z,101389.41
2022-12-25T04:53:04.375Z,101383.97
2022-12-25T04:53:40.952Z,101384.78
2022-12-25T04:54:12.445Z,101380.03
2022-12-25T04:54:47.463Z,101378.78
2022-12-25T04:55:24.673Z,101383.53
2022-12-25T04:56:08.433Z,101379.56
2022-12-25T04:56:45.819Z,101378.78
2022-12-25T04:57:17.738Z,101388.16
2022-12-25T04:57:49.261Z,101388.94
2022-12-25T04:58:24.399Z,101391.22
2022-12-25T04:59:03.114Z,101387.72
2022-12-25T04:59:37.472Z,101387.25
2022-12-25T05:00:09.519Z,101387.72
2022-12-25T05:00:46.055Z,101386.25
2022-12-25T05:01:17.885Z,101390.41
2022-12-25T05:01:49.499Z,101385.66
2022-12-25T05:02:26.267Z,101383.75
2022-12-25T05:04:01.419Z,101376.06
2022-12-25T05:04:32.878Z,101365.91
2022-12-25T05:05:04.691Z,101371.78
2022-12-25T05:05:42.604Z,101364.78
2022-12-25T05:06:14.097Z,101363.53
2022-12-25T05:06:45.587Z,101363.97
2022-12-25T05:07:22.896Z,101360.13
2022-12-25T05:07:56.213Z,101368.59
2022-12-25T05:08:32.392Z,101371.31
2022-12-25T05:09:04.106Z,101363.19
2022-12-25T05:09:41.774Z,101366.25
2022-12-25T05:10:13.434Z,101370.88
2022-12-25T05:10:44.929Z,101366.59
2022-12-25T05:11:19.649Z,101378.66
2022-12-25T05:11:54.021Z,101369.66
2022-12-25T05:12:25.496Z,101375.50
2022-12-25T05:13:02.543Z,101377.44
2022-12-25T05:13:35.835Z,101374.28
2022-12-25T05:14:07.343Z,101368.88
2022-12-25T05:14:45.536Z,101377.88
2022-12-25T05:15:16.985Z,101374.75
2022-12-25T05:15:54.362Z,101376.28
2022-12-25T05:16:31.801Z,101375.50
2022-12-25T05:17:08.014Z,101375.88
2022-12-25T05:17:39.564Z,101366.94
2022-12-25T05:18:18.881Z,101370.06
2022-12-25T05:18:53.801Z,101360.72
2022-12-25T05:19:28.509Z,101366.59
2022-12-25T05:20:02.315Z,101361.59
2022-12-25T05:20:40.007Z,101357.69
2022-12-25T05:21:15.573Z,101358.47
2022-12-25T05:22:36.527Z,101357.69
2022-12-25T05:23:12.266Z,101352.59
2022-12-25T05:23:53.101Z,101354.19
2022-12-25T05:24:33.041Z,101345.13
2022-12-25T05:25:12.082Z,101349.75
2022-12-25T05:25:43.577Z,101353.72
2022-12-25T05:26:17.173Z,101351.69
2022-12-25T05:26:53.098Z,101349.09
2022-12-25T05:27:26.799Z,101352.59
2022-12-25T05:27:58.291Z,101356.44
2022-12-25T05:28:31.366Z,101341.97
2022-12-25T05:29:02.846Z,101345.13
2022-12-25T05:29:37.453Z,101349.44
2022-12-25T05:30:09.465Z,101352.94
2022-12-25T05:30:50.257Z,101343.56
2022-12-25T05:31:23.553Z,101353.59
2022-12-25T05:31:57.164Z,101352.81
2022-12-25T05:32:33.363Z,101347.84
2022-12-25T05:33:10.148Z,101346.72
2022-12-25T05:33:41.880Z,101344.00
2022-12-25T05:34:19.177Z,101333.84
2022-12-25T05:34:50.845Z,101340.38
2022-12-25T05:35:22.384Z,101342.88
2022-12-25T05:36:06.214Z,101336.22
2022-12-25T05:36:40.604Z,101334.97
2022-12-25T05:37:34.871Z,101330.00
2022-12-25T05:38:12.583Z,101331.91
2022-12-25T05:38:44.223Z,101331.56
2022-12-25T05:39:19.157Z,101330.00
2022-12-25T05:39:53.080Z,101334.28
2022-12-25T05:40:27.139Z,101327.28
2022-12-25T05:40:58.611Z,101332.38
2022-12-25T05:41:34.513Z,101334.63
2022-12-25T05:42:14.510Z,101331.91
2022-12-25T05:42:49.317Z,101324.91
2022-12-25T05:43:25.104Z,101328.53
2022-12-25T05:43:56.535Z,101334.75
2022-12-25T05:44:30.441Z,101333.59
2022-12-25T05:45:01.918Z,101328.06
2022-12-25T05:45:39.376Z,101328.06
2022-12-25T05:46:13.128Z,101329.66
2022-12-25T05:46:49.579Z,101331.56
2022-12-25T05:47:23.943Z,101333.94
2022-12-25T05:47:59.772Z,101330.44
2022-12-25T05:48:32.734Z,101332.38
2022-12-25T05:49:05.729Z,101326.50
2022-12-25T05:49:38.430Z,101326.50
2022-12-25T05:50:10.088Z,101328.06
2022-12-25T05:50:41.624Z,101323.44
2022-12-25T05:51:14.645Z,101327.41
2022-12-25T05:51:50.815Z,101332.81
2022-12-25T05:52:22.288Z,101329.19
2022-12-25T05:52:57.708Z,101329.66
2022-12-25T05:53:43.145Z,101332.03
2022-12-25T05:54:14.576Z,101325.34
2022-12-25T05:54:48.899Z,101331.56
2022-12-25T05:55:23.464Z,101327.28
2022-12-25T05:56:00.201Z,101330.44
2022-12-25T05:56:32.919Z,101336.66
2022-12-25T05:57:08.708Z,101332.38
2022-12-25T05:57:40.170Z,101328.84
2022-12-25T05:58:13.449Z,101328.06
2022-12-25T05:58:44.861Z,101323.78
2022-12-25T05:59:18.605Z,101328.06
2022-12-25T05:59:50.073Z,101327.72
2022-12-25T06:00:30.163Z,101336.31
2022-12-25T06:01:22.762Z,101329.19
2022-12-25T06:02:02.085Z,101338.25
2022-12-25T06:02:35.468Z,101345.13
2022-12-25T06:03:07.176Z,101335.53
2022-12-25T06:03:41.899Z,101346.72
2022-12-25T06:04:17.143Z,101338.59
2022-12-25T06:04:50.762Z,101339.72
2022-12-25T06:05:24.893Z,101332.69
2022-12-25T06:05:56.422Z,101336.66
2022-12-25T06:06:30.891Z,101340.94
2022-12-25T06:07:04.737Z,101330.91
2022-12-25T06:07:36.239Z,101334.06
2022-12-25T06:08:09.877Z,101332.47
2022-12-25T06:08:41.659Z,101332.91
2022-12-25T06:09:15.876Z,101339.91
2022-12-25T06:09:47.701Z,101332.47
2022-12-25T06:10:24.158Z,101338.78
2022-12-25T06:11:01.919Z,101337.97
2022-12-25T06:11:35.808Z,101325.94
2022-12-25T06:12:15.538Z,101336.84
2022-12-25T06:12:47.294Z,101327.94
2022-12-25T06:13:21.977Z,101321.72
2022-12-25T06:13:55.520Z,101325.22
2022-12-25T06:14:31.603Z,101317.41
2022-12-25T06:15:04.561Z,101321.38
2022-12-25T06:15:41.576Z,101319.00
2022-12-25T06:16:23.790Z,101313.56
2022-12-25T06:16:57.439Z,101309.72
2022-12-25T06:17:33.893Z,101308.94
2022-12-25T06:18:05.673Z,101309.72
2022-12-25T06:19:33.902Z,101314.81
2022-12-25T06:20:12.934Z,101319.13
2022-12-25T06:20:55.039Z,101306.22
2022-12-25T06:21:31.229Z,101307.47
2022-12-25T06:22:04.679Z,101308.59
2022-12-25T06:22:37.794Z,101308.59
2022-12-25T06:23:09.506Z,101295.38
2022-12-25T06:23:48.473Z,101304.41
2022-12-25T06:24:22.749Z,101300.47
2022-12-25T06:24:57.089Z,101301.59
2022-12-25T06:25:34.094Z,101305.91
2022-12-25T06:26:16.775Z,101306.22
2022-12-25T06:26:49.836Z,101310.53
2022-12-25T06:27:23.646Z,101313.25
2022-12-25T06:28:05.091Z,101314.03
2022-12-25T06:28:47.261Z,101311.22
2022-12-25T06:29:21.880Z,101308.50
2022-12-25T06:29:55.839Z,101304.22
2022-12-25T06:30:29.878Z,101314.38
2022-12-25T06:31:10.546Z,101312.09
2022-12-25T06:31:43.157Z,101313.25
2022-12-25T06:32:14.843Z,101312.91
2022-12-25T06:32:50.725Z,101314.38
2022-12-25T06:33:24.644Z,101311.31
2022-12-25T06:34:03.526Z,101314.47
2022-12-25T06:34:40.250Z,101307.47
2022-12-25T06:35:16.238Z,101315.28
2022-12-25T06:36:43.113Z,101307.13
2022-12-25T06:37:20.003Z,101311.44
2022-12-25T06:37:51.868Z,101303.75
2022-12-25T06:38:32.016Z,101307.59
2022-12-25T06:39:04.491Z,101316.16
2022-12-25T06:39:38.315Z,101319.34
2022-12-25T06:40:13.316Z,101311.53
2022-12-25T06:40:44.988Z,101309.63
2022-12-25T06:41:27.004Z,101308.03
2022-12-25T06:42:00.680Z,101314.34
2022-12-25T06:42:35.947Z,101303.84
2022-12-25T06:43:09.784Z,101303.84
2022-12-25T06:43:41.641Z,101303.84
2022-12-25T06:44:16.300Z,101301.47
2022-12-25T06:44:47.757Z,101303.97
2022-12-25T06:45:28.418Z,101290.28
2022-12-25T06:46:11.679Z,101294.59
2022-12-25T06:46:43.479Z,101288.38
2022-12-25T06:48:12.105Z,101284.19
2022-12-25T06:49:03.577Z,101296.28
2022-12-25T06:49:42.297Z,101280.69
2022-12-25T06:50:17.250Z,101285.31
2022-12-25T06:50:54.089Z,101289.25
2022-12-25T06:51:38.875Z,101297.03
2022-12-25T06:52:16.362Z,101292.41
2022-12-25T06:52:49.879Z,101291.97
2022-12-25T06:53:23.619Z,101308.78
2022-12-25T06:53:59.426Z,101304.16
2022-12-25T06:54:34.594Z,101302.56
2022-12-25T06:55:13.464Z,101299.41
2022-12-25T06:55:54.127Z,101295.56
2022-12-25T06:56:28.221Z,101300.31
2022-12-25T06:57:02.220Z,101293.63
2022-12-25T06:57:36.701Z,101294.09
2022-12-25T06:58:08.213Z,101292.63
2022-12-25T06:58:49.624Z,101294.53
2022-12-25T06:59:31.163Z,101293.41
2022-12-25T07:00:03.527Z,101299.63
2022-12-25T07:00:36.997Z,101293.41
2022-12-25T07:01:21.577Z,101289.91
2022-12-25T07:02:10.449Z,101287.97
2022-12-25T07:02:48.452Z,101282.91
2022-12-25T07:03:31.012Z,101278.59
2022-12-25T07:04:10.246Z,101282.44
2022-12-25T07:04:49.999Z,101279.03
2022-12-25T07:05:24.396Z,101280.28
2022-12-25T07:05:55.948Z,101279.84
2022-12-25T07:06:35.146Z,101274.06
2022-12-25T07:07:12.127Z,101270.91
2022-12-25T07:07:45.982Z,101277.91
2022-12-25T07:08:17.528Z,101272.16
2022-12-25T07:08:54.601Z,101274.06
2022-12-25T07:09:29.172Z,101267.97
2022-12-25T07:10:02.724Z,101270.66
2022-12-25T07:10:43.062Z,101270.56
2022-12-25T07:11:17.857Z,101274.63
2022-12-25T07:11:53.876Z,101271.81
2022-12-25T07:12:34.838Z,101279.94
2022-12-25T07:13:06.427Z,101274.84
2022-12-25T07:13:54.642Z,101280.06
2022-12-25T07:14:33.406Z,101273.72
2022-12-25T07:15:18.371Z,101269.53
2022-12-25T07:16:05.177Z,101287.06
2022-12-25T07:16:43.253Z,101288.19
2022-12-25T07:17:23.982Z,101288.97
2022-12-25T07:18:04.230Z,101284.25
2022-12-25T07:18:37.164Z,101279.94
2022-12-25T07:19:15.531Z,101285.13
2022-12-25T07:19:49.662Z,101286.59
2022-12-25T07:20:23.235Z,101282.31
2022-12-25T07:21:01.005Z,101281.97
2022-12-25T07:21:32.521Z,101267.97
2022-12-25T07:22:05.814Z,101283.56
2022-12-25T07:22:39.339Z,101286.28
2022-12-25T07:23:20.440Z,101290.47
2022-12-25T07:23:59.882Z,101295.19
2022-12-25T07:24:31.437Z,101285.81
2022-12-25T07:25:12.109Z,101300.63
2022-12-25T07:25:59.164Z,101293.63
2022-12-25T07:26:32.944Z,101302.63
2022-12-25T07:27:04.389Z,101306.06
2022-12-25T07:27:41.802Z,101309.22
2022-12-25T07:28:14.936Z,101305.34
2022-12-25T07:28:51.718Z,101300.97
2022-12-25T07:29:25.506Z,101306.13
2022-12-25T07:30:12.039Z,101291.69
2022-12-25T07:30:48.769Z,101301.50
2022-12-25T07:31:22.980Z,101289.78
2022-12-25T07:31:57.493Z,101296.44
2022-12-25T07:32:45.575Z,101302.19
2022-12-25T07:33:26.586Z,101306.13
2022-12-25T07:33:58.335Z,101302.19
2022-12-25T07:34:34.548Z,101305.72
2022-12-25T07:35:06.332Z,101310.00
2022-12-25T07:35:38.834Z,101303.00
2022-12-25T07:36:15.943Z,101301.41
2022-12-25T07:36:57.054Z,101299.91
2022-12-25T07:37:31.888Z,101298.00
2022-12-25T07:38:06.616Z,101293.34
2022-12-25T07:38:46.343Z,101303.88
2022-12-25T07:39:24.527Z,101304.56